Airport View

Enter AWOS ICAO identifier for current METAR.

ex. KFNL

KALM 212345Z AUTO 19014G21KT 10SM CLR 20/15 A3004 RMK AO2

21 Sep 2019 23:47

Frequency: 127.825

Phone: 575-439-4112

Other Area AWOS: KHMN - KSRR - KLRU - KBIF

TAF AMD KHMN 202247Z 2022/2123 20012G18KT 9999 FEW080 SCT120 QNH2990INS TEMPO 2022/2102 23015G25KT BECMG 2102/2103 VRB06KT 9999 FEW120 QNH3002INS BECMG 2107/2108 VRB06KT 9999 SCT080 BKN100 QNH3003INS TEMPO 2109/2112 VRB06KT 9000 -SHRA BKN080 BECMG 2112/2113 VRB06KT 9999 NSW BKN080 QNH3008INS BECMG 2119/2120 19012KT 9999 BKN120 QNH3010INS TS OMTNS E TX33/2023Z TN16/2113Z LAST NO AMDS AFT 2101 NEXT 2309